Time;durP1;ratioP1;P1;durP2;ratioP2;P2;SDS_P1;SDS_P2;PMS_P1;PMS_P2;Temp;Humidity;BMP_temperature;BMP_pressure;BME280_temperature;BME280_humidity;BME280_pressure;Samples;Min_cycle;Max_cycle;Signal;HPM_P1;HPM_P2
2023/03/07 00:01:29;;;;;;;1.02;0.65;;;2.40;88.00;;;;;;4982385;28;20045;-78
2023/03/07 00:03:55;;;;;;;0.10;0.10;;;2.30;88.40;;;;;;5003219;28;20026;-78
2023/03/07 00:06:21;;;;;;;0.30;0.30;;;2.30;88.70;;;;;;5001469;28;20037;-78
2023/03/07 00:08:51;;;;;;;2.85;2.00;;;2.30;89.10;;;;;;5003946;28;20269;-78
2023/03/07 00:11:16;;;;;;;0.82;0.82;;;2.30;89.20;;;;;;5001427;28;20474;-77
2023/03/07 00:13:42;;;;;;;0.98;0.98;;;2.30;88.80;;;;;;5000373;28;20030;-78
2023/03/07 00:16:12;;;;;;;0.52;0.52;;;2.30;89.10;;;;;;5001753;28;20083;-78
2023/03/07 00:18:38;;;;;;;0.68;0.68;;;2.30;89.10;;;;;;4992659;28;20514;-78
2023/03/07 00:21:06;;;;;;;0.45;0.45;;;2.30;89.10;;;;;;5002595;28;20061;-78
2023/03/07 00:23:37;;;;;;;0.85;0.85;;;2.30;89.20;;;;;;4999960;28;20088;-78
2023/03/07 00:26:10;;;;;;;0.30;0.30;;;2.30;89.10;;;;;;4983509;28;20084;-78
2023/03/07 00:28:36;;;;;;;0.10;0.10;;;2.30;89.20;;;;;;4998657;28;20041;-78
2023/03/07 00:31:07;;;;;;;0.40;0.40;;;2.30;89.30;;;;;;4996017;28;20037;-78
2023/03/07 00:33:33;;;;;;;1.25;1.13;;;2.40;89.60;;;;;;4991680;28;20527;-78
2023/03/07 00:36:01;;;;;;;1.30;1.20;;;2.30;89.60;;;;;;4998193;28;20024;-78
2023/03/07 00:38:29;;;;;;;0.90;0.90;;;2.50;89.30;;;;;;4998522;28;20512;-77
2023/03/07 00:40:57;;;;;;;0.50;0.50;;;2.50;89.50;;;;;;5001667;28;20049;-78
2023/03/07 00:43:22;;;;;;;0.85;0.85;;;2.60;89.20;;;;;;5002239;28;20042;-78
2023/03/07 00:45:48;;;;;;;5.97;1.85;;;2.80;88.60;;;;;;5002319;28;20049;-78
2023/03/07 00:48:14;;;;;;;0.82;0.80;;;2.90;88.10;;;;;;5002747;28;20091;-78
2023/03/07 00:50:39;;;;;;;0.70;0.70;;;3.00;87.70;;;;;;5002407;28;20050;-78
2023/03/07 00:53:05;;;;;;;2.35;1.20;;;2.90;87.90;;;;;;5000651;28;20030;-78
2023/03/07 00:55:30;;;;;;;3.92;1.60;;;2.70;88.90;;;;;;5001829;28;20040;-78
2023/03/07 00:57:56;;;;;;;0.47;0.47;;;2.80;88.70;;;;;;5002252;28;20025;-78
2023/03/07 01:00:22;;;;;;;1.30;1.20;;;2.60;89.80;;;;;;5003253;28;20042;-78
2023/03/07 01:02:49;;;;;;;0.52;0.52;;;2.60;89.90;;;;;;4997519;28;20490;-78
2023/03/07 01:05:15;;;;;;;0.10;0.10;;;2.70;89.90;;;;;;5002243;28;20104;-78
2023/03/07 01:07:40;;;;;;;0.30;0.30;;;2.70;89.20;;;;;;4999264;28;20448;-78
2023/03/07 01:10:06;;;;;;;1.30;0.75;;;2.60;89.10;;;;;;5000911;28;20060;-77
2023/03/07 01:12:32;;;;;;;0.80;0.80;;;2.60;89.60;;;;;;5002638;28;20040;-77
2023/03/07 01:14:58;;;;;;;0.50;0.50;;;2.60;90.00;;;;;;5001629;28;20513;-77
2023/03/07 01:17:23;;;;;;;4.38;1.17;;;2.70;89.70;;;;;;5005971;28;20037;-77
2023/03/07 01:19:49;;;;;;;0.28;0.28;;;2.60;89.80;;;;;;4999011;28;20041;-76
2023/03/07 01:22:15;;;;;;;1.13;1.10;;;2.60;90.00;;;;;;4996338;28;20050;-77
2023/03/07 01:24:40;;;;;;;0.35;0.35;;;2.50;90.10;;;;;;5016940;28;20547;-77
2023/03/07 01:27:06;;;;;;;0.73;0.73;;;2.60;89.90;;;;;;5012762;28;20033;-78
2023/03/07 01:29:32;;;;;;;1.30;1.15;;;2.50;90.10;;;;;;5014754;28;20025;-78
2023/03/07 01:31:57;;;;;;;0.75;0.75;;;2.50;90.10;;;;;;5006084;28;20029;-78
2023/03/07 01:34:23;;;;;;;1.85;0.98;;;2.50;90.10;;;;;;4991998;28;20065;-78
2023/03/07 01:36:49;;;;;;;0.10;0.10;;;2.40;90.30;;;;;;5005535;28;20025;-77
2023/03/07 01:39:16;;;;;;;0.93;0.93;;;2.40;90.40;;;;;;5007413;28;20505;-77
2023/03/07 01:41:43;;;;;;;0.88;0.88;;;2.60;90.20;;;;;;5002964;28;20052;-77
2023/03/07 01:44:16;;;;;;;;;;;2.60;90.00;;;;;;5003115;28;20132;-77
2023/03/07 01:46:51;;;;;;;0.80;0.55;;;2.50;90.00;;;;;;5007361;28;19909;-77
2023/03/07 01:49:23;;;;;;;0.25;0.25;;;2.40;90.50;;;;;;5000711;28;20030;-77
2023/03/07 01:51:57;;;;;;;2.03;1.60;;;2.50;90.30;;;;;;4999036;28;20523;-77
2023/03/07 01:54:24;;;;;;;2.17;0.90;;;2.60;90.10;;;;;;4999090;28;20038;-77
2023/03/07 01:56:51;;;;;;;0.60;0.60;;;2.60;90.00;;;;;;4998091;28;20101;-77
2023/03/07 01:59:23;;;;;;;3.75;1.23;;;2.60;90.00;;;;;;5011897;28;20120;-77
2023/03/07 02:01:50;;;;;;;0.77;0.77;;;2.70;90.00;;;;;;5000356;28;20034;-77
2023/03/07 02:04:26;;;;;;;1.40;1.30;;;2.60;90.10;;;;;;4995640;28;20034;-77
2023/03/07 02:06:52;;;;;;;0.85;0.85;;;2.50;90.10;;;;;;4990306;28;20119;-77
2023/03/07 02:09:20;;;;;;;0.30;0.30;;;2.50;90.40;;;;;;5000283;28;20029;-77
2023/03/07 02:11:48;;;;;;;0.35;0.35;;;2.50;90.30;;;;;;4991292;28;20033;-77
2023/03/07 02:14:14;;;;;;;0.35;0.35;;;2.50;90.30;;;;;;4988899;28;20639;-77
2023/03/07 02:16:41;;;;;;;1.52;1.48;;;2.50;90.30;;;;;;4995124;28;20034;-77
2023/03/07 02:19:29;;;;;;;0.30;0.30;;;2.40;90.50;;;;;;5000179;28;20057;-77
2023/03/07 02:22:07;;;;;;;0.90;0.50;;;2.40;90.40;;;;;;5010526;28;21263;-77
2023/03/07 02:24:59;;;;;;;1.10;1.10;;;2.50;90.30;;;;;;5014850;28;20072;-77
2023/03/07 02:27:28;;;;;;;0.35;0.35;;;2.60;90.20;;;;;;4997486;28;20845;-78
2023/03/07 02:29:53;;;;;;;0.20;0.20;;;2.60;90.10;;;;;;4988120;28;20035;-77
2023/03/07 02:32:19;;;;;;;2.13;1.98;;;2.80;89.50;;;;;;4997362;28;20387;-78
2023/03/07 02:34:45;;;;;;;0.10;0.10;;;2.80;89.30;;;;;;4981434;28;20560;-77
2023/03/07 02:37:17;;;;;;;0.10;0.10;;;2.80;89.30;;;;;;4999235;28;20025;-77
2023/03/07 02:39:45;;;;;;;0.30;0.30;;;2.90;89.70;;;;;;4999095;28;20602;-78
2023/03/07 02:42:15;;;;;;;0.40;0.40;;;3.00;89.00;;;;;;5001210;28;20042;-78
2023/03/07 02:44:44;;;;;;;0.40;0.40;;;2.90;90.00;;;;;;5002843;28;20061;-77
2023/03/07 02:47:10;;;;;;;0.43;0.43;;;2.80;89.70;;;;;;4975596;28;20033;-78
2023/03/07 02:49:35;;;;;;;0.22;0.22;;;3.00;89.60;;;;;;4999288;28;20076;-78
2023/03/07 02:52:01;;;;;;;0.30;0.30;;;3.00;89.70;;;;;;4990004;28;20109;-78
2023/03/07 02:54:27;;;;;;;0.33;0.23;;;2.90;90.10;;;;;;5005879;28;20040;-78
2023/03/07 02:56:53;;;;;;;2.55;2.35;;;2.90;90.40;;;;;;4996792;28;20441;-78
2023/03/07 02:59:19;;;;;;;0.10;0.10;;;3.00;90.10;;;;;;5003290;28;20026;-78
2023/03/07 03:01:45;;;;;;;0.00;0.00;;;3.10;89.10;;;;;;5008880;28;20066;-77
2023/03/07 03:04:10;;;;;;;0.25;0.25;;;3.20;88.50;;;;;;5003221;28;20061;-77
2023/03/07 03:06:36;;;;;;;1.52;1.45;;;3.20;88.70;;;;;;5001667;28;20411;-77
2023/03/07 03:09:02;;;;;;;2.50;1.77;;;3.10;89.30;;;;;;4996554;28;20744;-78
2023/03/07 03:11:28;;;;;;;0.47;0.47;;;2.80;90.30;;;;;;5002568;28;20583;-78
2023/03/07 03:13:53;;;;;;;0.40;0.40;;;2.70;90.50;;;;;;5003934;28;20036;-77
2023/03/07 03:16:19;;;;;;;0.10;0.10;;;2.70;90.60;;;;;;4998004;28;20033;-77
2023/03/07 03:18:45;;;;;;;0.80;0.80;;;2.60;91.10;;;;;;4996902;28;20053;-77
2023/03/07 03:21:11;;;;;;;0.20;0.20;;;2.60;91.10;;;;;;5000163;28;20045;-78
2023/03/07 03:23:37;;;;;;;2.33;1.23;;;2.40;91.40;;;;;;4984693;28;20111;-78
2023/03/07 03:26:06;;;;;;;0.93;0.93;;;2.20;92.00;;;;;;4998346;28;20064;-77
2023/03/07 03:28:33;;;;;;;0.85;0.85;;;2.10;92.40;;;;;;4997372;28;20039;-77
2023/03/07 03:31:01;;;;;;;2.40;0.80;;;2.20;92.00;;;;;;5004880;28;20045;-78
2023/03/07 03:33:28;;;;;;;0.77;0.65;;;1.90;92.30;;;;;;5003571;28;20025;-78
2023/03/07 03:35:55;;;;;;;0.85;0.85;;;1.60;93.00;;;;;;5003700;28;20028;-78
2023/03/07 03:38:21;;;;;;;0.47;0.47;;;1.50;93.20;;;;;;4996370;28;20513;-78
2023/03/07 03:40:46;;;;;;;0.60;0.60;;;1.20;93.70;;;;;;5003960;28;20038;-77
2023/03/07 03:43:12;;;;;;;0.35;0.35;;;1.20;93.90;;;;;;5002353;28;20422;-78
2023/03/07 03:45:39;;;;;;;0.82;0.63;;;1.20;93.90;;;;;;5002256;28;20125;-78
2023/03/07 03:48:05;;;;;;;2.13;0.60;;;1.20;93.90;;;;;;4995378;28;20521;-78
2023/03/07 03:50:31;;;;;;;1.65;1.55;;;1.20;93.70;;;;;;5001390;28;20041;-78
2023/03/07 03:52:58;;;;;;;1.58;1.48;;;1.20;93.80;;;;;;4988061;28;20036;-77
2023/03/07 03:55:23;;;;;;;0.20;0.20;;;1.20;93.80;;;;;;5002630;28;20110;-77
2023/03/07 03:57:49;;;;;;;1.20;1.10;;;1.30;93.50;;;;;;5002275;28;20066;-78
2023/03/07 04:00:18;;;;;;;0.75;0.75;;;1.50;93.20;;;;;;5003102;28;20029;-77
2023/03/07 04:02:46;;;;;;;2.55;2.38;;;1.60;93.20;;;;;;5001551;28;20119;-78
2023/03/07 04:05:12;;;;;;;1.38;1.27;;;1.50;93.00;;;;;;4999171;28;20065;-78
2023/03/07 04:07:38;;;;;;;1.30;1.10;;;1.50;93.00;;;;;;4996828;28;20098;-78
2023/03/07 04:10:04;;;;;;;0.57;0.57;;;1.40;93.10;;;;;;5002850;28;20030;-78
2023/03/07 04:12:30;;;;;;;0.90;0.90;;;1.40;93.20;;;;;;4994480;28;20034;-78
2023/03/07 04:14:56;;;;;;;1.48;1.38;;;1.30;93.40;;;;;;5003608;28;20428;-79
2023/03/07 04:17:22;;;;;;;0.25;0.25;;;1.40;93.40;;;;;;5000823;28;20545;-79
2023/03/07 04:19:47;;;;;;;4.30;1.08;;;1.40;93.20;;;;;;5004465;28;20658;-80
2023/03/07 04:22:13;;;;;;;0.40;0.40;;;1.50;93.00;;;;;;4999974;28;20042;-79
2023/03/07 04:24:39;;;;;;;0.30;0.30;;;1.60;92.90;;;;;;5001222;28;20068;-80
2023/03/07 04:27:06;;;;;;;0.95;0.95;;;1.50;93.00;;;;;;5000375;28;20375;-78
2023/03/07 04:29:32;;;;;;;5.47;2.38;;;1.40;93.20;;;;;;5002822;28;20030;-79
2023/03/07 04:31:58;;;;;;;0.73;0.73;;;1.30;93.40;;;;;;4998752;28;20041;-79
2023/03/07 04:34:24;;;;;;;0.55;0.55;;;1.30;93.50;;;;;;5001334;28;20030;-79
2023/03/07 04:36:50;;;;;;;0.55;0.55;;;1.30;93.70;;;;;;5001400;28;20029;-78
2023/03/07 04:39:15;;;;;;;0.65;0.65;;;1.30;93.70;;;;;;5004205;28;20038;-78
2023/03/07 04:41:41;;;;;;;1.88;0.65;;;1.30;93.50;;;;;;4998431;28;20038;-78
2023/03/07 04:44:07;;;;;;;1.35;1.27;;;1.40;93.30;;;;;;5001523;28;20833;-78
2023/03/07 04:46:33;;;;;;;0.45;0.45;;;1.20;93.60;;;;;;4997491;28;20049;-78
2023/03/07 04:48:59;;;;;;;0.20;0.20;;;1.40;93.40;;;;;;5001407;28;20087;-78
2023/03/07 04:51:24;;;;;;;0.28;0.28;;;1.50;93.40;;;;;;4994053;28;20531;-77
2023/03/07 04:53:50;;;;;;;1.05;1.05;;;1.60;93.20;;;;;;4997371;28;20045;-78
2023/03/07 04:56:16;;;;;;;0.50;0.50;;;1.80;92.90;;;;;;5001768;28;20108;-80
2023/03/07 04:58:43;;;;;;;0.93;0.93;;;1.80;92.80;;;;;;5001573;28;20038;-80
2023/03/07 05:01:09;;;;;;;0.98;0.98;;;1.90;92.60;;;;;;5000995;28;20042;-80
2023/03/07 05:03:34;;;;;;;0.20;0.20;;;1.90;92.60;;;;;;4994138;28;20406;-80
2023/03/07 05:06:04;;;;;;;0.28;0.28;;;2.00;92.40;;;;;;4999111;28;20026;-80
2023/03/07 05:08:30;;;;;;;1.25;1.23;;;2.00;92.50;;;;;;4997425;28;20034;-80
2023/03/07 05:10:56;;;;;;;0.50;0.50;;;2.00;92.40;;;;;;5011019;28;20029;-80
2023/03/07 05:13:22;;;;;;;0.38;0.38;;;2.00;92.40;;;;;;5001210;28;20030;-80
2023/03/07 05:15:54;;;;;;;1.30;1.25;;;2.10;92.20;;;;;;4993577;28;20026;-81
2023/03/07 05:18:21;;;;;;;1.23;1.17;;;2.00;92.40;;;;;;4983941;28;20034;-81
2023/03/07 05:20:47;;;;;;;0.77;0.60;;;1.90;92.50;;;;;;4987142;28;20410;-81
2023/03/07 05:23:12;;;;;;;0.40;0.40;;;1.80;92.80;;;;;;4980677;28;20057;-79
2023/03/07 05:25:38;;;;;;;0.22;0.22;;;1.70;93.20;;;;;;4993855;28;20501;-79
2023/03/07 05:28:04;;;;;;;0.65;0.65;;;1.80;93.20;;;;;;5005255;28;20635;-78
2023/03/07 05:30:29;;;;;;;0.55;0.52;;;1.70;93.20;;;;;;5010390;28;20063;-78
2023/03/07 05:32:55;;;;;;;0.13;0.13;;;1.80;93.20;;;;;;4999341;28;20502;-78
2023/03/07 05:35:23;;;;;;;1.95;1.58;;;1.70;93.40;;;;;;5000641;28;20557;-78
2023/03/07 05:37:49;;;;;;;1.08;1.08;;;1.70;93.60;;;;;;4993969;28;20029;-78
2023/03/07 05:40:16;;;;;;;1.80;1.23;;;1.70;93.30;;;;;;4998322;28;20309;-81
2023/03/07 05:42:42;;;;;;;0.75;0.75;;;1.60;93.80;;;;;;4985908;28;20044;-81
2023/03/07 05:45:08;;;;;;;1.10;1.10;;;1.60;93.80;;;;;;5000019;28;20058;-80
2023/03/07 05:47:34;;;;;;;2.22;1.75;;;1.60;93.60;;;;;;4983721;28;20777;-81
2023/03/07 05:50:00;;;;;;;1.00;0.75;;;1.50;93.80;;;;;;4985658;28;20030;-81
2023/03/07 05:52:27;;;;;;;0.10;0.10;;;1.30;94.20;;;;;;4965177;28;20034;-80
2023/03/07 05:54:52;;;;;;;0.65;0.65;;;1.20;94.50;;;;;;4981315;28;20112;-81
2023/03/07 05:57:18;;;;;;;0.45;0.45;;;1.30;94.40;;;;;;4981970;28;20042;-80
2023/03/07 05:59:43;;;;;;;1.17;1.13;;;1.40;94.40;;;;;;4982618;28;20035;-80
2023/03/07 06:02:09;;;;;;;3.30;0.57;;;1.40;94.30;;;;;;4973089;28;20406;-80
2023/03/07 06:04:35;;;;;;;0.82;0.80;;;1.50;94.00;;;;;;4980621;28;20022;-80
2023/03/07 06:07:00;;;;;;;0.90;0.90;;;1.50;94.10;;;;;;4983014;28;20136;-80
2023/03/07 06:09:27;;;;;;;0.77;0.77;;;1.40;94.30;;;;;;4982783;28;20115;-80
2023/03/07 06:11:52;;;;;;;0.22;0.22;;;1.40;94.40;;;;;;4979640;28;20041;-80
2023/03/07 06:14:19;;;;;;;1.17;1.13;;;1.50;94.30;;;;;;4980624;28;20034;-80
2023/03/07 06:16:45;;;;;;;3.00;1.30;;;1.60;94.20;;;;;;4982024;28;20482;-81
2023/03/07 06:19:11;;;;;;;0.70;0.70;;;1.90;93.20;;;;;;4981963;28;20045;-80
2023/03/07 06:21:37;;;;;;;0.28;0.28;;;1.90;93.40;;;;;;4981430;28;20038;-81
2023/03/07 06:24:03;;;;;;;0.60;0.60;;;2.30;92.60;;;;;;4982785;28;20039;-79
2023/03/07 06:26:29;;;;;;;0.50;0.50;;;2.20;92.20;;;;;;4986696;28;20168;-79
2023/03/07 06:28:54;;;;;;;0.22;0.22;;;2.00;92.70;;;;;;4981677;28;20133;-79
2023/03/07 06:31:20;;;;;;;1.08;1.08;;;2.00;93.00;;;;;;4984090;28;20763;-80
2023/03/07 06:33:46;;;;;;;0.55;0.30;;;2.00;92.80;;;;;;4986376;28;20026;-80
2023/03/07 06:36:14;;;;;;;1.17;1.08;;;2.10;93.00;;;;;;4982635;28;20041;-81
2023/03/07 06:38:40;;;;;;;0.00;0.00;;;2.10;93.10;;;;;;4983105;28;20036;-81
2023/03/07 06:41:06;;;;;;;1.50;1.40;;;2.20;93.00;;;;;;4961674;28;20046;-82
2023/03/07 06:43:32;;;;;;;1.35;0.40;;;2.20;93.20;;;;;;4981753;28;20030;-80
2023/03/07 06:45:58;;;;;;;0.20;0.20;;;2.10;93.60;;;;;;5000817;28;20901;-76
2023/03/07 06:48:24;;;;;;;1.10;1.00;;;2.00;93.60;;;;;;5000020;28;20037;-77
2023/03/07 06:50:49;;;;;;;0.80;0.80;;;1.90;93.50;;;;;;5002215;28;20079;-76
2023/03/07 06:53:15;;;;;;;0.85;0.85;;;1.90;93.50;;;;;;4998508;28;20037;-76
2023/03/07 06:55:41;;;;;;;0.55;0.55;;;2.00;93.80;;;;;;5003225;28;20065;-77
2023/03/07 06:58:06;;;;;;;0.80;0.80;;;2.00;94.10;;;;;;5000070;28;20034;-76
2023/03/07 07:00:32;;;;;;;11.50;3.03;;;2.00;94.00;;;;;;5000725;28;20079;-77
2023/03/07 07:02:58;;;;;;;0.95;0.95;;;2.00;94.00;;;;;;5014810;28;21169;-76
2023/03/07 07:05:24;;;;;;;0.75;0.75;;;2.10;93.80;;;;;;5007017;28;20489;-76
2023/03/07 07:07:49;;;;;;;0.90;0.90;;;2.20;93.40;;;;;;5004147;28;20501;-77
2023/03/07 07:10:15;;;;;;;0.75;0.75;;;2.30;93.10;;;;;;5004150;28;20037;-77
2023/03/07 07:12:41;;;;;;;0.30;0.30;;;2.50;93.10;;;;;;4986066;28;20034;-76
2023/03/07 07:15:08;;;;;;;0.93;0.47;;;2.50;92.60;;;;;;5007021;28;20507;-77
2023/03/07 07:17:34;;;;;;;4.15;1.23;;;2.60;92.50;;;;;;5006353;28;20036;-78
2023/03/07 07:20:03;;;;;;;0.50;0.50;;;2.70;92.30;;;;;;4993300;28;20021;-76
2023/03/07 07:22:28;;;;;;;0.85;0.85;;;3.00;92.00;;;;;;4995348;28;20124;-77
2023/03/07 07:24:54;;;;;;;5.93;1.23;;;3.00;91.50;;;;;;5002149;28;20035;-76
2023/03/07 07:27:19;;;;;;;1.15;1.13;;;2.90;91.70;;;;;;5013419;28;20068;-77
2023/03/07 07:29:45;;;;;;;2.50;0.93;;;3.10;91.60;;;;;;5002342;28;20036;-77
2023/03/07 07:32:11;;;;;;;0.70;0.70;;;3.00;91.70;;;;;;5005585;28;20038;-77
2023/03/07 07:34:36;;;;;;;1.08;0.73;;;3.00;91.40;;;;;;5004177;28;20470;-77
2023/03/07 07:37:02;;;;;;;0.17;0.17;;;3.00;91.70;;;;;;5002845;28;20018;-77
2023/03/07 07:39:28;;;;;;;0.60;0.60;;;3.00;91.90;;;;;;5003069;28;20624;-77
2023/03/07 07:41:54;;;;;;;1.15;1.10;;;3.00;91.80;;;;;;5005419;28;20034;-77
2023/03/07 07:44:19;;;;;;;1.58;1.02;;;3.00;91.70;;;;;;5012931;28;20184;-77
2023/03/07 07:46:45;;;;;;;0.82;0.82;;;3.00;91.50;;;;;;5007673;28;20036;-77
2023/03/07 07:49:11;;;;;;;0.80;0.80;;;3.00;91.80;;;;;;5014225;28;20100;-76
2023/03/07 07:51:38;;;;;;;0.73;0.73;;;3.00;91.80;;;;;;5010987;28;20066;-77
2023/03/07 07:54:04;;;;;;;1.85;0.90;;;3.00;92.10;;;;;;5012168;28;20025;-77
2023/03/07 07:56:30;;;;;;;0.30;0.30;;;3.10;92.00;;;;;;4998296;28;20022;-77
2023/03/07 07:58:55;;;;;;;1.35;0.95;;;3.30;92.00;;;;;;5002639;28;20022;-77
2023/03/07 08:01:23;;;;;;;1.23;0.28;;;3.50;91.60;;;;;;5003131;28;20486;-77
2023/03/07 08:03:49;;;;;;;0.55;0.43;;;3.50;91.60;;;;;;4981784;28;20606;-77
2023/03/07 08:06:19;;;;;;;0.22;0.22;;;3.50;91.80;;;;;;5009565;28;20029;-77
2023/03/07 08:08:45;;;;;;;0.68;0.68;;;3.50;91.60;;;;;;4984571;28;20034;-77
2023/03/07 08:11:10;;;;;;;0.38;0.38;;;3.50;91.50;;;;;;5000150;28;20033;-77
2023/03/07 08:13:36;;;;;;;1.08;1.00;;;3.60;91.20;;;;;;5002728;28;20026;-77
2023/03/07 08:16:15;;;;;;;0.98;0.32;;;3.70;91.30;;;;;;5003832;28;20050;-77
2023/03/07 08:18:42;;;;;;;2.75;1.13;;;3.90;91.20;;;;;;4980166;28;20642;-77
2023/03/07 08:21:07;;;;;;;0.40;0.40;;;4.00;90.80;;;;;;5002191;28;20062;-77
2023/03/07 08:23:34;;;;;;;0.52;0.52;;;4.10;90.70;;;;;;5002095;28;20119;-77
2023/03/07 08:26:05;;;;;;;2.05;1.83;;;3.90;90.80;;;;;;5003810;28;20029;-77
2023/03/07 08:28:32;;;;;;;1.77;1.25;;;4.00;90.80;;;;;;5000165;28;20046;-77
2023/03/07 08:30:57;;;;;;;1.77;1.63;;;4.00;90.80;;;;;;5004776;28;20033;-77
2023/03/07 08:33:23;;;;;;;1.13;0.90;;;4.10;91.10;;;;;;4986750;28;20621;-77
2023/03/07 08:35:49;;;;;;;0.55;0.55;;;4.00;90.60;;;;;;5002607;28;20049;-77
2023/03/07 08:38:14;;;;;;;2.05;1.45;;;4.40;90.70;;;;;;5004284;28;20084;-77
2023/03/07 08:40:40;;;;;;;0.82;0.57;;;4.50;90.10;;;;;;4996133;28;20042;-77
2023/03/07 08:43:06;;;;;;;3.92;0.55;;;4.40;90.40;;;;;;5000457;28;20035;-77
2023/03/07 08:45:31;;;;;;;2.28;0.98;;;4.40;90.10;;;;;;5003865;28;20074;-77
2023/03/07 08:47:57;;;;;;;2.50;1.52;;;4.70;90.40;;;;;;5001143;28;20029;-76
2023/03/07 08:50:29;;;;;;;0.57;0.57;;;4.60;90.40;;;;;;4988101;28;20030;-76
2023/03/07 08:52:56;;;;;;;0.82;0.82;;;4.60;90.50;;;;;;4999584;28;20042;-77
2023/03/07 08:55:22;;;;;;;0.52;0.52;;;4.60;90.90;;;;;;5003113;28;20036;-77
2023/03/07 08:57:47;;;;;;;0.30;0.30;;;4.70;90.60;;;;;;5002811;28;20022;-77
2023/03/07 09:00:13;;;;;;;0.10;0.10;;;4.60;90.60;;;;;;4999687;28;20060;-77
2023/03/07 09:02:39;;;;;;;13.30;1.13;;;4.50;90.60;;;;;;5001305;28;20048;-77
2023/03/07 09:05:05;;;;;;;0.20;0.20;;;4.50;91.10;;;;;;5000696;28;20272;-77
2023/03/07 09:07:31;;;;;;;0.75;0.17;;;4.50;90.80;;;;;;5002445;28;20073;-77
2023/03/07 09:09:57;;;;;;;0.65;0.63;;;4.60;90.90;;;;;;5003652;28;20026;-77
2023/03/07 09:12:22;;;;;;;1.60;1.17;;;4.40;90.70;;;;;;5002569;28;20036;-77
2023/03/07 09:14:48;;;;;;;1.08;0.75;;;4.30;91.20;;;;;;5003290;28;20113;-77
2023/03/07 09:17:14;;;;;;;0.98;0.95;;;4.50;91.00;;;;;;5001912;28;20133;-77
2023/03/07 09:19:41;;;;;;;1.60;1.30;;;4.50;90.70;;;;;;5001223;28;20030;-77
2023/03/07 09:22:07;;;;;;;0.73;0.65;;;4.60;90.80;;;;;;5002072;28;20042;-77
2023/03/07 09:24:33;;;;;;;4.03;1.40;;;4.90;90.40;;;;;;5000108;28;20109;-77
2023/03/07 09:26:59;;;;;;;0.35;0.35;;;5.00;90.10;;;;;;4998736;28;20022;-77
2023/03/07 09:29:24;;;;;;;0.40;0.40;;;4.90;90.30;;;;;;5002915;28;20044;-77
2023/03/07 09:31:50;;;;;;;0.47;0.47;;;5.00;90.60;;;;;;5002041;28;20045;-77
2023/03/07 09:34:16;;;;;;;1.60;1.50;;;4.80;90.20;;;;;;4985514;28;20397;-77
2023/03/07 09:36:42;;;;;;;1.73;1.15;;;4.90;90.50;;;;;;4985557;28;20030;-77
2023/03/07 09:39:13;;;;;;;0.70;0.70;;;4.80;90.70;;;;;;4997367;28;20541;-77
2023/03/07 09:42:10;;;;;;;0.70;0.70;;;4.70;91.00;;;;;;5002827;28;20537;-77
2023/03/07 09:45:12;;;;;;;0.30;0.30;;;4.70;91.00;;;;;;5002763;28;20430;-77
2023/03/07 09:47:46;;;;;;;0.55;0.55;;;4.70;91.00;;;;;;5000428;28;20037;-77
2023/03/07 09:50:19;;;;;;;1.85;1.42;;;4.80;90.90;;;;;;4998458;28;20038;-77
2023/03/07 09:52:45;;;;;;;2.13;2.03;;;4.80;90.60;;;;;;4995583;28;20026;-78
2023/03/07 09:55:16;;;;;;;0.17;0.17;;;4.80;90.80;;;;;;5003155;28;20088;-78
2023/03/07 09:57:50;;;;;;;1.92;1.80;;;4.90;90.50;;;;;;5001551;28;20516;-77
2023/03/07 10:00:39;;;;;;;0.43;0.43;;;4.80;90.60;;;;;;4993139;28;20057;-77
2023/03/07 10:03:08;;;;;;;0.15;0.15;;;5.00;90.40;;;;;;4990006;28;20189;-77
2023/03/07 10:05:49;;;;;;;1.65;0.88;;;5.10;90.40;;;;;;4996186;28;20036;-77
2023/03/07 10:08:19;;;;;;;0.47;0.47;;;5.10;90.40;;;;;;5000629;28;20034;-78
2023/03/07 10:11:05;;;;;;;0.30;0.30;;;5.10;91.20;;;;;;4997660;28;20057;-77
2023/03/07 10:13:31;;;;;;;0.47;0.47;;;5.00;91.20;;;;;;4960690;28;20042;-77
2023/03/07 10:15:59;;;;;;;1.20;0.52;;;5.00;91.60;;;;;;4993123;28;20075;-77
2023/03/07 10:18:49;;;;;;;0.68;0.68;;;5.20;91.20;;;;;;5002989;28;20104;-77
2023/03/07 10:21:26;;;;;;;0.38;0.38;;;5.30;91.40;;;;;;5002279;28;20044;-77
2023/03/07 10:24:18;;;;;;;1.85;1.45;;;5.40;91.30;;;;;;5000038;28;20030;-77
2023/03/07 10:27:24;;;;;;;0.57;0.57;;;5.50;91.50;;;;;;4998639;28;20113;-78
2023/03/07 10:29:52;;;;;;;0.90;0.90;;;5.80;91.70;;;;;;4890879;29;20025;-78
2023/03/07 10:32:32;;;;;;;0.20;0.20;;;5.70;90.10;;;;;;4983846;28;20137;-77
2023/03/07 10:35:10;;;;;;;2.03;1.83;;;5.80;91.90;;;;;;4997473;28;20151;-78
2023/03/07 10:37:42;;;;;;;1.33;1.27;;;5.70;92.00;;;;;;5001176;28;20065;-78
2023/03/07 10:40:18;;;;;;;1.65;1.10;;;5.70;92.00;;;;;;4974289;28;20018;-77
2023/03/07 10:42:44;;;;;;;4.10;2.40;;;5.60;92.60;;;;;;4982031;28;20977;-77
2023/03/07 10:45:14;;;;;;;1.40;1.33;;;5.70;92.60;;;;;;4989713;28;20050;-78
2023/03/07 10:47:40;;;;;;;4.50;1.25;;;5.80;91.10;;;;;;4963837;28;20023;-78
2023/03/07 10:50:12;;;;;;;0.93;0.93;;;6.00;91.50;;;;;;4981305;28;20038;-78
2023/03/07 10:52:49;;;;;;;0.40;0.40;;;6.00;90.90;;;;;;4981910;28;20270;-78
2023/03/07 10:55:37;;;;;;;4.95;2.28;;;5.80;91.50;;;;;;4982302;28;20118;-78
2023/03/07 10:58:21;;;;;;;0.20;0.20;;;6.00;92.30;;;;;;4982810;28;20027;-78
2023/03/07 11:01:06;;;;;;;1.17;0.82;;;5.90;92.10;;;;;;4954298;28;21359;-78
2023/03/07 11:03:40;;;;;;;1.02;1.02;;;5.80;92.30;;;;;;4978075;28;20113;-77
2023/03/07 11:06:22;;;;;;;0.98;0.70;;;5.80;92.70;;;;;;4979669;28;20022;-78
2023/03/07 11:08:48;;;;;;;3.53;1.60;;;5.80;93.00;;;;;;4977273;28;20022;-77
2023/03/07 11:11:22;;;;;;;1.00;1.00;;;5.70;94.00;;;;;;4981941;28;20027;-78
2023/03/07 11:14:10;;;;;;;0.63;0.63;;;5.70;94.50;;;;;;4977759;28;20018;-77
2023/03/07 11:17:00;;;;;;;1.20;1.20;;;5.70;94.70;;;;;;4980192;28;20033;-78
2023/03/07 11:19:35;;;;;;;10.32;2.63;;;5.80;94.80;;;;;;4972501;28;20073;-77
2023/03/07 11:22:04;;;;;;;0.25;0.25;;;5.80;94.60;;;;;;4977666;28;20042;-78
2023/03/07 11:24:38;;;;;;;0.68;0.68;;;5.80;95.00;;;;;;4976455;28;20045;-77
2023/03/07 11:27:04;;;;;;;0.20;0.20;;;5.70;94.40;;;;;;4967939;28;20035;-77
2023/03/07 11:29:32;;;;;;;0.60;0.60;;;5.70;94.30;;;;;;4980371;28;20035;-78
2023/03/07 11:32:07;;;;;;;1.00;0.90;;;5.60;95.00;;;;;;4981895;28;20822;-79
2023/03/07 11:34:39;;;;;;;0.73;0.73;;;5.40;95.30;;;;;;4978381;28;20517;-79
2023/03/07 11:37:34;;;;;;;0.22;0.22;;;5.30;95.60;;;;;;4987365;28;20026;-78
2023/03/07 11:40:18;;;;;;;2.60;1.85;;;5.30;96.30;;;;;;4982564;28;20080;-78
2023/03/07 11:43:09;;;;;;;1.00;0.90;;;5.30;96.00;;;;;;4964391;28;20046;-78
2023/03/07 11:45:53;;;;;;;0.03;0.03;;;5.20;97.20;;;;;;4998464;28;20171;-78
2023/03/07 11:48:22;;;;;;;1.05;1.05;;;5.20;97.90;;;;;;5000855;28;20521;-77
2023/03/07 11:50:56;;;;;;;0.17;0.17;;;5.30;97.10;;;;;;5002411;28;20485;-77
2023/03/07 11:53:30;;;;;;;0.52;0.52;;;5.00;96.80;;;;;;4982714;28;20057;-77
2023/03/07 11:56:08;;;;;;;0.57;0.57;;;4.90;99.70;;;;;;4997955;28;20117;-77
2023/03/07 11:59:06;;;;;;;0.30;0.30;;;5.10;98.70;;;;;;5002876;28;20018;-77
2023/03/07 12:01:57;;;;;;;3.15;1.90;;;5.10;98.20;;;;;;4959856;28;20607;-78
2023/03/07 12:05:13;;;;;;;0.22;0.22;;;5.00;98.30;;;;;;5003138;28;20026;-77
2023/03/07 12:07:44;;;;;;;;;;;4.40;99.90;;;;;;4916637;29;20031;-77
2023/03/07 12:10:35;;;;;;;0.43;0.43;;;4.20;99.90;;;;;;4989335;28;19996;-77
2023/03/07 12:13:16;;;;;;;0.38;0.38;;;4.40;99.90;;;;;;5000841;28;20038;-77
2023/03/07 12:16:08;;;;;;;0.63;0.63;;;4.50;99.90;;;;;;5002207;28;20389;-77
2023/03/07 12:18:55;;;;;;;2.13;1.05;;;4.70;99.90;;;;;;5001601;28;20030;-77
2023/03/07 12:21:44;;;;;;;0.30;0.30;;;4.80;99.90;;;;;;5000626;28;20140;-77
2023/03/07 12:24:25;;;;;;;3.20;1.48;;;4.80;99.90;;;;;;5000818;28;20037;-77
2023/03/07 12:27:04;;;;;;;0.60;0.60;;;4.70;99.90;;;;;;5002107;28;20419;-77
2023/03/07 12:29:52;;;;;;;0.45;0.45;;;5.00;99.90;;;;;;5002755;28;20030;-77
2023/03/07 12:32:23;;;;;;;0.32;0.32;;;4.80;99.90;;;;;;4999041;28;20493;-77
2023/03/07 12:34:52;;;;;;;0.30;0.30;;;5.00;99.90;;;;;;4993323;28;20112;-77
2023/03/07 12:37:21;;;;;;;0.60;0.57;;;4.90;99.90;;;;;;5000093;28;20017;-77
2023/03/07 12:40:06;;;;;;;0.45;0.45;;;5.00;99.90;;;;;;4996877;28;20026;-77
2023/03/07 12:43:00;;;;;;;0.77;0.77;;;5.20;99.90;;;;;;4989931;28;20042;-77
2023/03/07 12:45:31;;;;;;;0.38;0.38;;;5.00;99.90;;;;;;4993781;28;20435;-77
2023/03/07 12:48:27;;;;;;;0.30;0.30;;;5.10;99.90;;;;;;4998149;28;20394;-77
2023/03/07 12:51:03;;;;;;;0.32;0.32;;;5.40;99.90;;;;;;4962383;28;20089;-77
2023/03/07 12:53:34;;;;;;;0.43;0.43;;;5.30;99.90;;;;;;4999634;28;20022;-77
2023/03/07 12:56:16;;;;;;;1.17;1.17;;;5.40;99.90;;;;;;5003774;28;20029;-77
2023/03/07 12:59:06;;;;;;;0.80;0.80;;;5.30;99.90;;;;;;4987371;28;20100;-77
2023/03/07 13:01:59;;;;;;;0.50;0.50;;;5.40;99.90;;;;;;5000688;28;20050;-77
2023/03/07 13:04:45;;;;;;;0.82;0.73;;;5.40;99.90;;;;;;4997906;28;20092;-77
2023/03/07 13:07:28;;;;;;;1.33;1.17;;;5.10;99.90;;;;;;5001177;28;20060;-77
2023/03/07 13:09:57;;;;;;;0.20;0.20;;;5.20;99.90;;;;;;5003192;28;20025;-76
2023/03/07 13:12:30;;;;;;;1.00;0.52;;;5.20;99.90;;;;;;5002412;28;20140;-77